sensor_id;sensor_type;location;lat;lon;timestamp;pressure;altitude;pressure_sealevel;temperature;humidity
80180;BME280;69505;52.134;5.438;2023-06-26T00:01:29;101308.50;;;20.19;76.72
80180;BME280;69505;52.134;5.438;2023-06-26T00:03:58;101313.22;;;20.17;77.17
80180;BME280;69505;52.134;5.438;2023-06-26T00:06:25;101304.81;;;20.12;77.58
80180;BME280;69505;52.134;5.438;2023-06-26T00:08:53;101300.25;;;20.13;76.72
80180;BME280;69505;52.134;5.438;2023-06-26T00:11:21;101298.75;;;20.10;77.06
80180;BME280;69505;52.134;5.438;2023-06-26T00:13:48;101305.13;;;20.09;77.28
80180;BME280;69505;52.134;5.438;2023-06-26T00:16:14;101301.94;;;20.05;77.25
80180;BME280;69505;52.134;5.438;2023-06-26T00:18:41;101308.50;;;20.11;76.42
80180;BME280;69505;52.134;5.438;2023-06-26T00:21:08;101303.97;;;20.12;78.06
80180;BME280;69505;52.134;5.438;2023-06-26T00:23:34;101305.13;;;20.09;77.66
80180;BME280;69505;52.134;5.438;2023-06-26T00:26:05;101307.16;;;20.07;76.94
80180;BME280;69505;52.134;5.438;2023-06-26T00:28:32;101306.31;;;20.06;76.96
80180;BME280;69505;52.134;5.438;2023-06-26T00:30:58;101297.03;;;20.01;77.08
80180;BME280;69505;52.134;5.438;2023-06-26T00:33:25;101290.97;;;20.07;76.01
80180;BME280;69505;52.134;5.438;2023-06-26T00:35:52;101283.56;;;20.09;76.86
80180;BME280;69505;52.134;5.438;2023-06-26T00:38:18;101293.19;;;20.12;76.37
80180;BME280;69505;52.134;5.438;2023-06-26T00:40:45;101280.19;;;20.15;75.13
80180;BME280;69505;52.134;5.438;2023-06-26T00:43:12;101281.22;;;20.14;75.48
80180;BME280;69505;52.134;5.438;2023-06-26T00:45:38;101281.38;;;20.13;74.86
80180;BME280;69505;52.134;5.438;2023-06-26T00:48:10;101279.50;;;20.13;75.88
80180;BME280;69505;52.134;5.438;2023-06-26T00:50:38;101278.50;;;20.06;76.64
80180;BME280;69505;52.134;5.438;2023-06-26T00:53:06;101281.06;;;19.99;77.17
80180;BME280;69505;52.134;5.438;2023-06-26T00:55:32;101270.75;;;19.95;76.67
80180;BME280;69505;52.134;5.438;2023-06-26T00:57:59;101279.19;;;19.92;76.67
80180;BME280;69505;52.134;5.438;2023-06-26T01:00:26;101276.84;;;19.89;76.75
80180;BME280;69505;52.134;5.438;2023-06-26T01:02:52;101282.03;;;19.90;77.29
80180;BME280;69505;52.134;5.438;2023-06-26T01:05:20;101286.44;;;19.91;76.33
80180;BME280;69505;52.134;5.438;2023-06-26T01:07:48;101285.56;;;19.91;75.98
80180;BME280;69505;52.134;5.438;2023-06-26T01:10:18;101280.53;;;19.87;76.14
80180;BME280;69505;52.134;5.438;2023-06-26T01:12:45;101289.28;;;19.90;76.91
80180;BME280;69505;52.134;5.438;2023-06-26T01:15:12;101290.28;;;20.05;74.80
80180;BME280;69505;52.134;5.438;2023-06-26T01:17:39;101295.69;;;20.21;74.04
80180;BME280;69505;52.134;5.438;2023-06-26T01:20:07;101299.56;;;20.35;73.62
80180;BME280;69505;52.134;5.438;2023-06-26T01:22:45;101295.50;;;20.39;73.42
80180;BME280;69505;52.134;5.438;2023-06-26T01:28:05;101306.75;;;20.67;72.19
80180;BME280;69505;52.134;5.438;2023-06-26T01:30:34;101309.94;;;20.79;71.10
80180;BME280;69505;52.134;5.438;2023-06-26T01:33:03;101324.56;;;20.93;71.03
80180;BME280;69505;52.134;5.438;2023-06-26T01:35:30;101330.97;;;21.00;70.84
80180;BME280;69505;52.134;5.438;2023-06-26T01:38:16;101319.84;;;20.95;70.63
80180;BME280;69505;52.134;5.438;2023-06-26T01:40:43;101327.56;;;21.06;70.40
80180;BME280;69505;52.134;5.438;2023-06-26T01:43:26;101328.25;;;21.08;70.26
80180;BME280;69505;52.134;5.438;2023-06-26T01:45:58;101329.06;;;21.09;69.91
80180;BME280;69505;52.134;5.438;2023-06-26T01:48:31;101336.69;;;21.05;69.68
80180;BME280;69505;52.134;5.438;2023-06-26T01:50:59;101331.44;;;21.04;69.81
80180;BME280;69505;52.134;5.438;2023-06-26T01:53:29;101333.97;;;21.05;69.08
80180;BME280;69505;52.134;5.438;2023-06-26T01:56:01;101337.22;;;21.01;69.57
80180;BME280;69505;52.134;5.438;2023-06-26T01:58:32;101333.69;;;20.92;69.85
80180;BME280;69505;52.134;5.438;2023-06-26T02:01:00;101327.47;;;20.92;69.77
80180;BME280;69505;52.134;5.438;2023-06-26T02:03:27;101332.38;;;20.88;70.04
80180;BME280;69505;52.134;5.438;2023-06-26T02:05:54;101335.72;;;20.90;69.33
80180;BME280;69505;52.134;5.438;2023-06-26T02:08:20;101335.38;;;20.93;69.57
80180;BME280;69505;52.134;5.438;2023-06-26T02:10:49;101336.06;;;20.87;69.09
80180;BME280;69505;52.134;5.438;2023-06-26T02:13:15;101330.88;;;20.77;69.48
80180;BME280;69505;52.134;5.438;2023-06-26T02:15:42;101339.50;;;20.73;70.36
80180;BME280;69505;52.134;5.438;2023-06-26T02:18:08;101337.28;;;20.68;70.19
80180;BME280;69505;52.134;5.438;2023-06-26T02:20:35;101338.84;;;20.62;70.59
80180;BME280;69505;52.134;5.438;2023-06-26T02:23:02;101346.94;;;20.54;70.70
80180;BME280;69505;52.134;5.438;2023-06-26T02:25:28;101339.50;;;20.48;70.85
80180;BME280;69505;52.134;5.438;2023-06-26T02:27:55;101336.81;;;20.48;71.14
80180;BME280;69505;52.134;5.438;2023-06-26T02:30:21;101340.88;;;20.44;71.28
80180;BME280;69505;52.134;5.438;2023-06-26T02:32:48;101339.53;;;20.40;71.71
80180;BME280;69505;52.134;5.438;2023-06-26T02:35:15;101338.16;;;20.36;71.54
80180;BME280;69505;52.134;5.438;2023-06-26T02:37:41;101347.63;;;20.32;72.12
80180;BME280;69505;52.134;5.438;2023-06-26T02:40:08;101336.00;;;20.23;72.15
80180;BME280;69505;52.134;5.438;2023-06-26T02:42:37;101351.81;;;20.26;72.09
80180;BME280;69505;52.134;5.438;2023-06-26T02:45:03;101349.31;;;20.24;72.44
80180;BME280;69505;52.134;5.438;2023-06-26T02:47:30;101346.94;;;20.21;72.42
80180;BME280;69505;52.134;5.438;2023-06-26T02:49:57;101342.91;;;20.17;73.00
80180;BME280;69505;52.134;5.438;2023-06-26T02:52:23;101351.16;;;20.16;73.07
80180;BME280;69505;52.134;5.438;2023-06-26T02:54:50;101353.38;;;20.12;72.91
80180;BME280;69505;52.134;5.438;2023-06-26T02:57:16;101350.00;;;20.10;73.47
80180;BME280;69505;52.134;5.438;2023-06-26T02:59:43;101367.00;;;20.11;73.52
80180;BME280;69505;52.134;5.438;2023-06-26T03:02:10;101370.91;;;20.08;73.32
80180;BME280;69505;52.134;5.438;2023-06-26T03:04:37;101367.34;;;20.07;73.27
80180;BME280;69505;52.134;5.438;2023-06-26T03:07:04;101359.44;;;20.06;74.35
80180;BME280;69505;52.134;5.438;2023-06-26T03:09:30;101360.09;;;20.00;73.96
80180;BME280;69505;52.134;5.438;2023-06-26T03:11:57;101374.56;;;19.99;74.26
80180;BME280;69505;52.134;5.438;2023-06-26T03:14:24;101374.75;;;19.97;74.49
80180;BME280;69505;52.134;5.438;2023-06-26T03:16:50;101368.50;;;19.97;74.34
80180;BME280;69505;52.134;5.438;2023-06-26T03:19:19;101373.91;;;19.97;74.57
80180;BME280;69505;52.134;5.438;2023-06-26T03:21:46;101374.25;;;19.94;74.36
80180;BME280;69505;52.134;5.438;2023-06-26T03:24:12;101369.53;;;19.96;74.19
80180;BME280;69505;52.134;5.438;2023-06-26T03:26:38;101368.69;;;19.95;74.73
80180;BME280;69505;52.134;5.438;2023-06-26T03:29:05;101380.47;;;19.94;74.82
80180;BME280;69505;52.134;5.438;2023-06-26T03:31:32;101378.97;;;19.92;74.86
80180;BME280;69505;52.134;5.438;2023-06-26T03:33:58;101372.53;;;19.93;74.91
80180;BME280;69505;52.134;5.438;2023-06-26T03:36:25;101376.94;;;19.94;75.10
80180;BME280;69505;52.134;5.438;2023-06-26T03:38:51;101370.88;;;19.92;75.14
80180;BME280;69505;52.134;5.438;2023-06-26T03:41:23;101379.31;;;19.89;75.43
80180;BME280;69505;52.134;5.438;2023-06-26T03:43:50;101376.25;;;19.83;75.52
80180;BME280;69505;52.134;5.438;2023-06-26T03:46:17;101384.00;;;19.78;75.87
80180;BME280;69505;52.134;5.438;2023-06-26T03:48:43;101397.78;;;19.75;76.03
80180;BME280;69505;52.134;5.438;2023-06-26T03:51:10;101386.47;;;19.72;76.46
80180;BME280;69505;52.134;5.438;2023-06-26T03:53:37;101402.66;;;19.72;76.27
80180;BME280;69505;52.134;5.438;2023-06-26T03:56:03;101389.69;;;19.75;76.36
80180;BME280;69505;52.134;5.438;2023-06-26T03:58:30;101395.94;;;19.76;75.58
80180;BME280;69505;52.134;5.438;2023-06-26T04:00:56;101405.19;;;19.73;75.12
80180;BME280;69505;52.134;5.438;2023-06-26T04:03:24;101404.63;;;19.70;74.71
80180;BME280;69505;52.134;5.438;2023-06-26T04:05:50;101415.59;;;19.68;75.41
80180;BME280;69505;52.134;5.438;2023-06-26T04:08:17;101429.59;;;19.63;74.89
80180;BME280;69505;52.134;5.438;2023-06-26T04:10:45;101429.38;;;19.57;74.77
80180;BME280;69505;52.134;5.438;2023-06-26T04:13:12;101428.88;;;19.53;75.12
80180;BME280;69505;52.134;5.438;2023-06-26T04:15:38;101432.03;;;19.48;75.20
80180;BME280;69505;52.134;5.438;2023-06-26T04:18:05;101436.38;;;19.41;74.99
80180;BME280;69505;52.134;5.438;2023-06-26T04:20:32;101434.53;;;19.42;75.43
80180;BME280;69505;52.134;5.438;2023-06-26T04:23:01;101439.75;;;19.43;74.99
80180;BME280;69505;52.134;5.438;2023-06-26T04:25:28;101434.38;;;19.43;74.93
80180;BME280;69505;52.134;5.438;2023-06-26T04:27:55;101433.72;;;19.50;74.97
80180;BME280;69505;52.134;5.438;2023-06-26T04:30:22;101439.28;;;19.48;75.49
80180;BME280;69505;52.134;5.438;2023-06-26T04:32:48;101448.34;;;19.39;74.83
80180;BME280;69505;52.134;5.438;2023-06-26T04:35:15;101450.50;;;19.35;75.49
80180;BME280;69505;52.134;5.438;2023-06-26T04:37:42;101443.06;;;19.29;75.34
80180;BME280;69505;52.134;5.438;2023-06-26T04:40:09;101451.81;;;19.31;75.51
80180;BME280;69505;52.134;5.438;2023-06-26T04:42:38;101457.53;;;19.28;76.01
80180;BME280;69505;52.134;5.438;2023-06-26T04:45:05;101451.47;;;19.26;75.55
80180;BME280;69505;52.134;5.438;2023-06-26T04:47:31;101461.56;;;19.24;75.14
80180;BME280;69505;52.134;5.438;2023-06-26T04:49:58;101457.69;;;19.26;75.33
80180;BME280;69505;52.134;5.438;2023-06-26T04:52:25;101467.31;;;19.29;75.75
80180;BME280;69505;52.134;5.438;2023-06-26T04:54:52;101471.66;;;19.22;75.71
80180;BME280;69505;52.134;5.438;2023-06-26T04:57:18;101479.72;;;19.22;75.54
80180;BME280;69505;52.134;5.438;2023-06-26T04:59:45;101481.41;;;19.23;76.06
80180;BME280;69505;52.134;5.438;2023-06-26T05:02:11;101483.09;;;19.24;75.38
80180;BME280;69505;52.134;5.438;2023-06-26T05:04:41;101477.72;;;19.24;75.78
80180;BME280;69505;52.134;5.438;2023-06-26T05:07:09;101485.97;;;19.22;75.71
80180;BME280;69505;52.134;5.438;2023-06-26T05:09:35;101489.00;;;19.27;75.39
80180;BME280;69505;52.134;5.438;2023-06-26T05:12:02;101495.06;;;19.30;75.22
80180;BME280;69505;52.134;5.438;2023-06-26T05:14:29;101492.72;;;19.26;74.87
80180;BME280;69505;52.134;5.438;2023-06-26T05:16:56;101486.28;;;19.19;74.69
80180;BME280;69505;52.134;5.438;2023-06-26T05:19:22;101482.56;;;19.20;75.36
80180;BME280;69505;52.134;5.438;2023-06-26T05:21:50;101484.28;;;19.21;74.56
80180;BME280;69505;52.134;5.438;2023-06-26T05:24:17;101498.75;;;19.20;74.43
80180;BME280;69505;52.134;5.438;2023-06-26T05:26:48;101508.69;;;19.20;74.16
80180;BME280;69505;52.134;5.438;2023-06-26T05:29:14;101513.09;;;19.29;75.15
80180;BME280;69505;52.134;5.438;2023-06-26T05:31:42;101516.19;;;19.34;74.43
80180;BME280;69505;52.134;5.438;2023-06-26T05:34:12;101509.22;;;19.23;74.97
80180;BME280;69505;52.134;5.438;2023-06-26T05:36:41;101515.22;;;19.17;74.94
80180;BME280;69505;52.134;5.438;2023-06-26T05:39:08;101511.50;;;19.18;74.59
80180;BME280;69505;52.134;5.438;2023-06-26T05:41:35;101523.66;;;19.22;74.78
80180;BME280;69505;52.134;5.438;2023-06-26T05:44:02;101524.34;;;19.24;74.32
80180;BME280;69505;52.134;5.438;2023-06-26T05:46:28;101527.59;;;19.28;74.35
80180;BME280;69505;52.134;5.438;2023-06-26T05:48:55;101530.47;;;19.35;74.57
80180;BME280;69505;52.134;5.438;2023-06-26T05:51:22;101533.22;;;19.43;73.53
80180;BME280;69505;52.134;5.438;2023-06-26T05:53:49;101527.34;;;19.47;74.52
80180;BME280;69505;52.134;5.438;2023-06-26T05:56:16;101534.28;;;19.50;73.57
80180;BME280;69505;52.134;5.438;2023-06-26T05:58:45;101545.44;;;19.55;72.94
80180;BME280;69505;52.134;5.438;2023-06-26T06:01:12;101547.94;;;19.57;71.91
80180;BME280;69505;52.134;5.438;2023-06-26T06:03:39;101549.31;;;19.61;72.00
80180;BME280;69505;52.134;5.438;2023-06-26T06:06:06;101555.03;;;19.58;70.50
80180;BME280;69505;52.134;5.438;2023-06-26T06:08:32;101563.50;;;19.63;71.13
80180;BME280;69505;52.134;5.438;2023-06-26T06:10:59;101579.03;;;19.69;71.17
80180;BME280;69505;52.134;5.438;2023-06-26T06:13:26;101567.97;;;19.72;70.09
80180;BME280;69505;52.134;5.438;2023-06-26T06:15:52;101572.72;;;19.78;70.15
80180;BME280;69505;52.134;5.438;2023-06-26T06:18:19;101579.16;;;19.85;69.27
80180;BME280;69505;52.134;5.438;2023-06-26T06:20:46;101583.06;;;19.91;69.37
80180;BME280;69505;52.134;5.438;2023-06-26T06:23:12;101592.97;;;19.91;67.66
80180;BME280;69505;52.134;5.438;2023-06-26T06:25:39;101588.47;;;19.91;67.97
80180;BME280;69505;52.134;5.438;2023-06-26T06:28:05;101587.59;;;19.91;68.55
80180;BME280;69505;52.134;5.438;2023-06-26T06:30:32;101595.56;;;20.00;68.96
80180;BME280;69505;52.134;5.438;2023-06-26T06:33:09;101596.00;;;20.22;68.47
80180;BME280;69505;52.134;5.438;2023-06-26T06:35:36;101596.66;;;20.24;68.50
80180;BME280;69505;52.134;5.438;2023-06-26T06:38:03;101604.13;;;20.30;68.23
80180;BME280;69505;52.134;5.438;2023-06-26T06:40:29;101616.72;;;20.21;68.53
80180;BME280;69505;52.134;5.438;2023-06-26T06:42:56;101627.34;;;20.15;68.22
80180;BME280;69505;52.134;5.438;2023-06-26T06:45:22;101628.13;;;20.07;69.04
80180;BME280;69505;52.134;5.438;2023-06-26T06:47:49;101632.25;;;20.19;69.12
80180;BME280;69505;52.134;5.438;2023-06-26T06:50:16;101631.50;;;20.43;68.50
80180;BME280;69505;52.134;5.438;2023-06-26T06:52:44;101644.00;;;20.53;68.46
80180;BME280;69505;52.134;5.438;2023-06-26T06:55:11;101654.91;;;20.35;69.06
80180;BME280;69505;52.134;5.438;2023-06-26T06:57:39;101648.31;;;20.29;69.39
80180;BME280;69505;52.134;5.438;2023-06-26T07:00:11;101652.19;;;20.35;68.64
80180;BME280;69505;52.134;5.438;2023-06-26T07:02:39;101637.84;;;20.60;69.10
80180;BME280;69505;52.134;5.438;2023-06-26T07:05:06;101646.97;;;20.76;67.63
80180;BME280;69505;52.134;5.438;2023-06-26T07:07:33;101645.72;;;20.54;68.10
80180;BME280;69505;52.134;5.438;2023-06-26T07:10:06;101649.91;;;20.48;68.66
80180;BME280;69505;52.134;5.438;2023-06-26T07:12:33;101651.56;;;20.49;68.88
80180;BME280;69505;52.134;5.438;2023-06-26T07:15:01;101652.63;;;20.56;67.94
80180;BME280;69505;52.134;5.438;2023-06-26T07:17:29;101663.56;;;20.46;68.78
80180;BME280;69505;52.134;5.438;2023-06-26T07:19:55;101674.50;;;20.45;67.85
80180;BME280;69505;52.134;5.438;2023-06-26T07:22:23;101671.06;;;20.61;69.35
80180;BME280;69505;52.134;5.438;2023-06-26T07:24:49;101674.19;;;20.99;66.97
80180;BME280;69505;52.134;5.438;2023-06-26T07:27:16;101685.56;;;21.19;67.32
80180;BME280;69505;52.134;5.438;2023-06-26T07:29:44;101687.22;;;21.03;67.57
80180;BME280;69505;52.134;5.438;2023-06-26T07:32:11;101685.03;;;21.15;66.68
80180;BME280;69505;52.134;5.438;2023-06-26T07:34:40;101675.91;;;23.40;59.97
80180;BME280;69505;52.134;5.438;2023-06-26T07:37:07;101686.69;;;22.23;62.37
80180;BME280;69505;52.134;5.438;2023-06-26T07:39:33;101682.19;;;21.41;64.37
80180;BME280;69505;52.134;5.438;2023-06-26T07:42:00;101688.75;;;23.46;59.53
80180;BME280;69505;52.134;5.438;2023-06-26T07:44:27;101684.66;;;25.63;52.78
80180;BME280;69505;52.134;5.438;2023-06-26T07:46:54;101691.53;;;25.87;51.99
80180;BME280;69505;52.134;5.438;2023-06-26T07:49:20;101685.22;;;25.87;51.83
80180;BME280;69505;52.134;5.438;2023-06-26T07:51:47;101686.88;;;26.99;48.37
80180;BME280;69505;52.134;5.438;2023-06-26T07:54:14;101688.66;;;26.65;49.46
80180;BME280;69505;52.134;5.438;2023-06-26T07:56:54;101685.16;;;26.43;50.15
80180;BME280;69505;52.134;5.438;2023-06-26T07:59:24;101704.16;;;26.23;49.18
80180;BME280;69505;52.134;5.438;2023-06-26T08:01:52;101708.38;;;24.54;54.42
80180;BME280;69505;52.134;5.438;2023-06-26T08:04:20;101715.25;;;23.59;56.60
80180;BME280;69505;52.134;5.438;2023-06-26T08:06:52;101712.56;;;23.74;56.84
80180;BME280;69505;52.134;5.438;2023-06-26T08:09:20;101710.84;;;23.35;57.96
80180;BME280;69505;52.134;5.438;2023-06-26T08:11:47;101707.97;;;24.12;56.76
80180;BME280;69505;52.134;5.438;2023-06-26T08:14:15;101703.88;;;25.19;52.93
80180;BME280;69505;52.134;5.438;2023-06-26T08:16:42;101705.63;;;25.69;53.18
80180;BME280;69505;52.134;5.438;2023-06-26T08:19:09;101704.34;;;25.65;51.92
80180;BME280;69505;52.134;5.438;2023-06-26T08:21:36;101709.34;;;26.18;52.66
80180;BME280;69505;52.134;5.438;2023-06-26T08:24:02;101714.34;;;25.86;49.63
80180;BME280;69505;52.134;5.438;2023-06-26T08:26:29;101711.50;;;26.23;52.04
80180;BME280;69505;52.134;5.438;2023-06-26T08:28:55;101718.72;;;25.81;49.99
80180;BME280;69505;52.134;5.438;2023-06-26T08:31:22;101717.91;;;25.37;50.82
80180;BME280;69505;52.134;5.438;2023-06-26T08:33:49;101715.72;;;25.47;49.79
80180;BME280;69505;52.134;5.438;2023-06-26T08:36:15;101732.69;;;24.47;52.87
80180;BME280;69505;52.134;5.438;2023-06-26T08:38:42;101728.69;;;25.73;48.85
80180;BME280;69505;52.134;5.438;2023-06-26T08:41:09;101732.09;;;26.39;48.13
80180;BME280;69505;52.134;5.438;2023-06-26T08:43:36;101733.56;;;26.35;46.88
80180;BME280;69505;52.134;5.438;2023-06-26T08:46:02;101740.09;;;26.40;44.81
80180;BME280;69505;52.134;5.438;2023-06-26T08:48:32;101732.28;;;25.96;45.28
80180;BME280;69505;52.134;5.438;2023-06-26T08:51:02;101734.75;;;26.60;44.62
80180;BME280;69505;52.134;5.438;2023-06-26T08:53:56;101740.84;;;26.62;46.30
80180;BME280;69505;52.134;5.438;2023-06-26T08:56:25;101749.09;;;25.35;47.07
80180;BME280;69505;52.134;5.438;2023-06-26T08:58:54;101749.94;;;26.41;43.43
80180;BME280;69505;52.134;5.438;2023-06-26T09:01:21;101756.03;;;26.43;44.39
80180;BME280;69505;52.134;5.438;2023-06-26T09:03:48;101758.47;;;26.66;44.75
80180;BME280;69505;52.134;5.438;2023-06-26T09:06:15;101769.19;;;26.05;45.71
80180;BME280;69505;52.134;5.438;2023-06-26T09:08:42;101771.94;;;25.40;47.82
80180;BME280;69505;52.134;5.438;2023-06-26T09:11:08;101772.97;;;25.39;47.78
80180;BME280;69505;52.134;5.438;2023-06-26T09:13:35;101782.16;;;25.81;46.76
80180;BME280;69505;52.134;5.438;2023-06-26T09:16:08;101775.03;;;25.80;45.90
80180;BME280;69505;52.134;5.438;2023-06-26T09:18:35;101787.41;;;25.03;48.96
80180;BME280;69505;52.134;5.438;2023-06-26T09:21:09;101800.53;;;25.72;45.13
80180;BME280;69505;52.134;5.438;2023-06-26T09:23:36;101791.75;;;25.77;47.35
80180;BME280;69505;52.134;5.438;2023-06-26T09:26:04;101790.03;;;26.54;44.02
80180;BME280;69505;52.134;5.438;2023-06-26T09:28:32;101788.91;;;25.64;45.58
80180;BME280;69505;52.134;5.438;2023-06-26T09:31:06;101797.72;;;26.09;45.03
80180;BME280;69505;52.134;5.438;2023-06-26T09:33:36;101793.56;;;25.70;44.06
80180;BME280;69505;52.134;5.438;2023-06-26T09:36:18;101795.56;;;25.83;44.27
80180;BME280;69505;52.134;5.438;2023-06-26T09:38:46;101794.88;;;25.74;44.54
80180;BME280;69505;52.134;5.438;2023-06-26T09:41:16;101803.94;;;26.03;46.28
80180;BME280;69505;52.134;5.438;2023-06-26T09:43:47;101804.69;;;25.90;44.55
80180;BME280;69505;52.134;5.438;2023-06-26T09:46:24;101801.59;;;25.57;45.63
80180;BME280;69505;52.134;5.438;2023-06-26T09:49:01;101813.16;;;26.02;46.88
80180;BME280;69505;52.134;5.438;2023-06-26T09:51:29;101823.84;;;25.09;47.77
80180;BME280;69505;52.134;5.438;2023-06-26T09:53:57;101834.19;;;23.93;48.89
80180;BME280;69505;52.134;5.438;2023-06-26T09:56:25;101827.88;;;24.01;48.12
80180;BME280;69505;52.134;5.438;2023-06-26T09:58:52;101827.34;;;24.58;49.24
80180;BME280;69505;52.134;5.438;2023-06-26T10:01:21;101822.66;;;25.11;45.14
80180;BME280;69505;52.134;5.438;2023-06-26T10:03:47;101826.41;;;24.66;46.46
80180;BME280;69505;52.134;5.438;2023-06-26T10:06:15;101825.16;;;24.98;46.79
80180;BME280;69505;52.134;5.438;2023-06-26T10:08:45;101837.56;;;24.71;46.11
80180;BME280;69505;52.134;5.438;2023-06-26T10:11:14;101841.84;;;24.50;47.88
80180;BME280;69505;52.134;5.438;2023-06-26T10:13:43;101860.44;;;24.39;46.15
80180;BME280;69505;52.134;5.438;2023-06-26T10:16:18;101852.31;;;23.69;47.39
80180;BME280;69505;52.134;5.438;2023-06-26T10:18:48;101856.72;;;24.17;47.06
80180;BME280;69505;52.134;5.438;2023-06-26T10:21:17;101852.53;;;24.97;45.64
80180;BME280;69505;52.134;5.438;2023-06-26T10:23:46;101851.31;;;25.14;44.37
80180;BME280;69505;52.134;5.438;2023-06-26T10:26:14;101854.31;;;25.34;45.33
80180;BME280;69505;52.134;5.438;2023-06-26T10:28:41;101849.25;;;25.31;44.85
80180;BME280;69505;52.134;5.438;2023-06-26T10:31:12;101851.59;;;25.34;43.10
80180;BME280;69505;52.134;5.438;2023-06-26T10:33:39;101854.41;;;25.26;42.89
80180;BME280;69505;52.134;5.438;2023-06-26T10:36:28;101867.75;;;24.91;45.99
80180;BME280;69505;52.134;5.438;2023-06-26T10:38:57;101864.44;;;25.10;45.36
80180;BME280;69505;52.134;5.438;2023-06-26T10:41:25;101863.19;;;25.58;45.65
80180;BME280;69505;52.134;5.438;2023-06-26T10:44:06;101883.75;;;25.16;45.58
80180;BME280;69505;52.134;5.438;2023-06-26T10:46:47;101854.03;;;25.14;43.44
80180;BME280;69505;52.134;5.438;2023-06-26T10:49:14;101862.59;;;24.81;44.38
80180;BME280;69505;52.134;5.438;2023-06-26T10:51:48;101868.44;;;25.44;43.57
80180;BME280;69505;52.134;5.438;2023-06-26T10:54:17;101874.63;;;25.89;43.00
80180;BME280;69505;52.134;5.438;2023-06-26T10:56:49;101863.75;;;25.89;42.56
80180;BME280;69505;52.134;5.438;2023-06-26T10:59:19;101870.53;;;25.79;41.69
80180;BME280;69505;52.134;5.438;2023-06-26T11:02:05;101876.75;;;26.16;41.09
80180;BME280;69505;52.134;5.438;2023-06-26T11:04:36;101895.59;;;26.39;42.04
80180;BME280;69505;52.134;5.438;2023-06-26T11:07:22;101876.66;;;26.80;38.84
80180;BME280;69505;52.134;5.438;2023-06-26T11:09:58;101885.91;;;26.29;41.55
80180;BME280;69505;52.134;5.438;2023-06-26T11:12:35;101888.41;;;25.88;42.56
80180;BME280;69505;52.134;5.438;2023-06-26T11:15:14;101888.00;;;25.69;42.03
80180;BME280;69505;52.134;5.438;2023-06-26T11:17:44;101886.56;;;25.73;44.17
80180;BME280;69505;52.134;5.438;2023-06-26T11:20:12;101888.56;;;26.23;40.99
80180;BME280;69505;52.134;5.438;2023-06-26T11:22:41;101899.84;;;25.62;41.78
80180;BME280;69505;52.134;5.438;2023-06-26T11:25:10;101903.44;;;25.18;43.26
80180;BME280;69505;52.134;5.438;2023-06-26T11:30:07;101922.72;;;24.02;46.28
80180;BME280;69505;52.134;5.438;2023-06-26T11:32:36;101922.50;;;24.04;46.13
80180;BME280;69505;52.134;5.438;2023-06-26T11:35:03;101926.00;;;25.41;44.03
80180;BME280;69505;52.134;5.438;2023-06-26T11:37:34;101916.53;;;25.22;42.33
80180;BME280;69505;52.134;5.438;2023-06-26T11:40:16;101928.78;;;23.81;44.90
80180;BME280;69505;52.134;5.438;2023-06-26T11:42:44;101927.69;;;24.37;45.13
80180;BME280;69505;52.134;5.438;2023-06-26T11:45:11;101934.47;;;23.95;45.96
80180;BME280;69505;52.134;5.438;2023-06-26T11:47:39;101933.13;;;23.90;45.84
80180;BME280;69505;52.134;5.438;2023-06-26T11:50:06;101940.91;;;24.40;43.51
80180;BME280;69505;52.134;5.438;2023-06-26T11:52:33;101961.75;;;24.24;46.29
80180;BME280;69505;52.134;5.438;2023-06-26T11:54:59;101952.81;;;24.39;43.85
80180;BME280;69505;52.134;5.438;2023-06-26T11:57:26;101952.16;;;24.37;42.32
80180;BME280;69505;52.134;5.438;2023-06-26T11:59:53;101961.63;;;24.41;41.69
80180;BME280;69505;52.134;5.438;2023-06-26T12:02:20;101953.34;;;24.34;42.03
80180;BME280;69505;52.134;5.438;2023-06-26T12:04:48;101958.19;;;24.70;42.14
80180;BME280;69505;52.134;5.438;2023-06-26T12:07:17;101970.72;;;25.39;41.24
80180;BME280;69505;52.134;5.438;2023-06-26T12:09:45;101958.06;;;25.82;40.67
80180;BME280;69505;52.134;5.438;2023-06-26T12:12:14;101966.59;;;25.58;39.58
80180;BME280;69505;52.134;5.438;2023-06-26T12:14:42;101971.59;;;25.39;41.48
80180;BME280;69505;52.134;5.438;2023-06-26T12:17:10;101972.44;;;24.87;42.01
80180;BME280;69505;52.134;5.438;2023-06-26T12:19:38;101983.31;;;24.49;41.10
80180;BME280;69505;52.134;5.438;2023-06-26T12:22:06;101992.44;;;24.25;41.49
80180;BME280;69505;52.134;5.438;2023-06-26T12:24:36;101994.13;;;24.03;42.69
80180;BME280;69505;52.134;5.438;2023-06-26T12:27:08;101976.69;;;23.97;43.43
80180;BME280;69505;52.134;5.438;2023-06-26T12:29:36;101974.47;;;24.01;43.74
80180;BME280;69505;52.134;5.438;2023-06-26T12:32:03;101988.66;;;24.80;42.74
80180;BME280;69505;52.134;5.438;2023-06-26T12:34:34;101976.13;;;24.56;41.76
80180;BME280;69505;52.134;5.438;2023-06-26T12:37:02;101972.25;;;24.50;40.17
80180;BME280;69505;52.134;5.438;2023-06-26T12:39:29;101980.97;;;24.38;42.31
80180;BME280;69505;52.134;5.438;2023-06-26T12:42:00;101989.94;;;23.92;42.53
80180;BME280;69505;52.134;5.438;2023-06-26T12:44:31;101992.50;;;24.40;41.58
80180;BME280;69505;52.134;5.438;2023-06-26T12:47:02;101988.63;;;23.88;43.23
80180;BME280;69505;52.134;5.438;2023-06-26T12:49:40;101990.94;;;23.51;42.87
80180;BME280;69505;52.134;5.438;2023-06-26T12:52:13;102003.69;;;23.43;43.81
80180;BME280;69505;52.134;5.438;2023-06-26T12:54:41;102000.34;;;23.72;44.23
80180;BME280;69505;52.134;5.438;2023-06-26T12:57:08;101993.84;;;24.44;44.90
80180;BME280;69505;52.134;5.438;2023-06-26T12:59:37;102000.00;;;24.99;41.42
80180;BME280;69505;52.134;5.438;2023-06-26T13:02:04;102009.66;;;24.17;41.40